Аэропорт: Уйташ. Махачкала

ICAO: URML

METAR:
2024-04-22 22:00:00
URML 222200Z 27004MPS 9999 NSC 18/09 Q1019 R32/01//70 NOSIG RMK QFE763/1018
TAF:
2024-04-22 20:00:00
TAF URML 222000Z 2221/2306 28005G10MPS 6000 SCT020 
  TEMPO 2221/2303 26003G08MPS SCT016 SCT050CB